createdAt,value
2018-04-18T00:00:38.782Z,12.37
2018-04-18T00:01:39.335Z,12.31
2018-04-18T00:02:39.895Z,12.28
2018-04-18T00:03:40.456Z,12.44
2018-04-18T00:04:40.996Z,12.32
2018-04-18T00:05:41.544Z,12.27
2018-04-18T00:06:42.089Z,12.28
2018-04-18T00:07:42.635Z,12.25
2018-04-18T00:08:43.182Z,12.31
2018-04-18T00:09:43.728Z,12.29
2018-04-18T00:10:44.276Z,12.21
2018-04-18T00:11:44.821Z,12.27
2018-04-18T00:12:45.367Z,12.34
2018-04-18T00:13:45.920Z,12.22
2018-04-18T00:14:46.467Z,12.27
2018-04-18T00:15:47.011Z,12.19
2018-04-18T00:16:47.565Z,12.22
2018-04-18T00:17:48.108Z,12.19
2018-04-18T00:18:48.659Z,12.13
2018-04-18T00:19:49.209Z,12.09
2018-04-18T00:20:49.757Z,12.14
2018-04-18T00:21:50.305Z,12.09
2018-04-18T00:22:50.853Z,12.04
2018-04-18T00:23:51.403Z,12.06
2018-04-18T00:24:51.948Z,11.95
2018-04-18T00:25:52.492Z,12.00
2018-04-18T00:26:53.078Z,11.95
2018-04-18T00:27:53.592Z,12.00
2018-04-18T00:28:54.140Z,11.93
2018-04-18T00:29:54.691Z,11.96
2018-04-18T00:30:55.241Z,11.93
2018-04-18T00:31:55.787Z,11.85
2018-04-18T00:32:56.340Z,11.91
2018-04-18T00:33:56.883Z,11.87
2018-04-18T00:34:57.431Z,11.95
2018-04-18T00:35:57.979Z,11.87
2018-04-18T00:36:58.526Z,11.90
2018-04-18T00:37:59.079Z,11.90
2018-04-18T00:38:59.627Z,11.93
2018-04-18T00:40:00.173Z,11.87
2018-04-18T00:41:00.719Z,11.84
2018-04-18T00:42:01.274Z,11.77
2018-04-18T00:43:01.822Z,11.83
2018-04-18T00:44:02.369Z,11.77
2018-04-18T00:45:02.918Z,11.81
2018-04-18T00:46:03.465Z,11.72
2018-04-18T00:47:04.013Z,11.73
2018-04-18T00:48:04.562Z,11.67
2018-04-18T00:49:05.119Z,11.69
2018-04-18T00:50:05.656Z,11.65
2018-04-18T00:51:06.200Z,11.66
2018-04-18T00:52:06.752Z,11.66
2018-04-18T00:53:07.299Z,11.59
2018-04-18T00:54:07.843Z,11.58
2018-04-18T00:55:08.384Z,11.62
2018-04-18T00:56:08.934Z,11.63
2018-04-18T00:57:09.483Z,11.65
2018-04-18T00:58:10.039Z,11.67
2018-04-18T00:59:10.593Z,11.59
2018-04-18T01:00:11.132Z,11.52
2018-04-18T01:01:11.683Z,11.52
2018-04-18T01:02:12.234Z,11.48
2018-04-18T01:03:12.782Z,11.54
2018-04-18T01:04:13.328Z,11.58
2018-04-18T01:05:13.875Z,11.54
2018-04-18T01:06:14.425Z,11.51
2018-04-18T01:07:14.970Z,11.50
2018-04-18T01:08:15.516Z,11.50
2018-04-18T01:09:16.068Z,11.47
2018-04-18T01:10:16.610Z,11.48
2018-04-18T01:11:17.159Z,11.51
2018-04-18T01:12:17.709Z,11.44
2018-04-18T01:13:18.249Z,11.42
2018-04-18T01:14:18.799Z,11.44
2018-04-18T01:15:19.351Z,11.47
2018-04-18T01:16:19.898Z,11.47
2018-04-18T01:17:20.443Z,11.33
2018-04-18T01:18:20.991Z,11.36
2018-04-18T01:19:21.537Z,11.27
2018-04-18T01:20:22.081Z,11.30
2018-04-18T01:21:22.630Z,11.24
2018-04-18T01:22:23.179Z,11.29
2018-04-18T01:23:23.728Z,11.19
2018-04-18T01:24:24.280Z,11.21
2018-04-18T01:25:24.824Z,11.24
2018-04-18T01:26:25.374Z,11.18
2018-04-18T01:27:25.925Z,11.21
2018-04-18T01:28:26.466Z,11.26
2018-04-18T01:29:27.016Z,11.18
2018-04-18T01:30:27.564Z,11.26
2018-04-18T01:31:28.110Z,11.30
2018-04-18T01:32:28.654Z,11.14
2018-04-18T01:33:29.202Z,11.12
2018-04-18T01:34:29.752Z,11.15
2018-04-18T01:35:30.299Z,11.07
2018-04-18T01:36:30.842Z,11.04
2018-04-18T01:37:31.392Z,11.12
2018-04-18T01:38:31.942Z,11.07
2018-04-18T01:39:32.495Z,11.03
2018-04-18T01:40:33.033Z,11.03
2018-04-18T01:41:33.578Z,11.08
2018-04-18T01:42:34.121Z,11.03
2018-04-18T01:43:34.664Z,11.08
2018-04-18T01:44:35.215Z,11.00
2018-04-18T01:45:35.762Z,10.97
2018-04-18T01:46:36.309Z,10.85
2018-04-18T01:47:36.860Z,10.93
2018-04-18T01:48:37.403Z,10.85
2018-04-18T01:49:37.949Z,10.90
2018-04-18T01:50:38.498Z,10.83
2018-04-18T01:51:39.045Z,10.90
2018-04-18T01:52:39.587Z,10.93
2018-04-18T01:53:40.137Z,10.90
2018-04-18T01:54:40.689Z,10.93
2018-04-18T01:55:41.235Z,10.76
2018-04-18T01:56:41.787Z,10.78
2018-04-18T01:57:42.332Z,10.82
2018-04-18T01:58:42.880Z,10.81
2018-04-18T01:59:43.421Z,10.75
2018-04-18T02:00:43.962Z,10.82
2018-04-18T02:01:44.513Z,10.81
2018-04-18T02:02:45.052Z,10.83
2018-04-18T02:03:45.600Z,10.71
2018-04-18T02:04:46.146Z,10.74
2018-04-18T02:05:46.690Z,10.78
2018-04-18T02:06:47.237Z,10.82
2018-04-18T02:07:47.813Z,10.76
2018-04-18T02:08:48.328Z,10.91
2018-04-18T02:09:48.881Z,10.81
2018-04-18T02:10:49.427Z,10.81
2018-04-18T02:11:49.977Z,10.81
2018-04-18T02:12:50.525Z,10.81
2018-04-18T02:13:51.070Z,10.76
2018-04-18T02:14:51.622Z,10.75
2018-04-18T02:15:52.166Z,10.79
2018-04-18T02:16:52.709Z,10.74
2018-04-18T02:17:53.255Z,10.71
2018-04-18T02:18:53.806Z,10.81
2018-04-18T02:19:54.349Z,10.81
2018-04-18T02:20:54.899Z,10.87
2018-04-18T02:21:55.450Z,10.83
2018-04-18T02:22:55.993Z,10.89
2018-04-18T02:23:56.538Z,10.81
2018-04-18T02:24:57.083Z,10.78
2018-04-18T02:25:57.632Z,10.75
2018-04-18T02:26:58.183Z,10.79
2018-04-18T02:27:58.739Z,10.69
2018-04-18T02:28:59.279Z,10.64
2018-04-18T02:29:59.877Z,10.67
2018-04-18T02:31:00.375Z,10.69
2018-04-18T02:32:00.917Z,10.64
2018-04-18T02:33:01.468Z,10.66
2018-04-18T02:34:02.010Z,10.69
2018-04-18T02:35:02.556Z,10.60
2018-04-18T02:36:03.106Z,10.53
2018-04-18T02:37:03.656Z,10.57
2018-04-18T02:38:04.203Z,10.53
2018-04-18T02:39:04.754Z,10.49
2018-04-18T02:40:05.295Z,10.49
2018-04-18T02:41:05.835Z,10.47
2018-04-18T02:42:06.377Z,10.57
2018-04-18T02:43:06.927Z,10.47
2018-04-18T02:44:07.480Z,10.39
2018-04-18T02:45:08.022Z,10.44
2018-04-18T02:46:08.565Z,10.29
2018-04-18T02:47:09.106Z,10.37
2018-04-18T02:48:09.660Z,10.32
2018-04-18T02:49:10.197Z,10.32
2018-04-18T02:50:10.745Z,10.17
2018-04-18T02:51:11.305Z,10.19
2018-04-18T02:52:11.841Z,10.19
2018-04-18T02:53:12.380Z,10.20
2018-04-18T02:54:12.929Z,10.19
2018-04-18T02:55:13.478Z,10.19
2018-04-18T02:56:14.029Z,10.17
2018-04-18T02:57:14.571Z,10.09
2018-04-18T02:58:15.120Z,10.16
2018-04-18T02:59:15.668Z,10.23
2018-04-18T03:00:16.212Z,10.16
2018-04-18T03:01:16.754Z,10.19
2018-04-18T03:02:17.313Z,10.12
2018-04-18T03:03:17.856Z,10.14
2018-04-18T03:04:18.392Z,10.22
2018-04-18T03:05:18.940Z,10.13
2018-04-18T03:06:19.487Z,10.08
2018-04-18T03:07:20.038Z,10.02
2018-04-18T03:08:20.579Z,10.09
2018-04-18T03:09:21.124Z,10.09
2018-04-18T03:10:21.666Z,10.01
2018-04-18T03:11:22.208Z,9.96
2018-04-18T03:12:22.757Z,10.08
2018-04-18T03:13:23.302Z,9.99
2018-04-18T03:14:23.849Z,9.96
2018-04-18T03:15:24.401Z,10.08
2018-04-18T03:16:24.940Z,9.99
2018-04-18T03:17:25.498Z,10.05
2018-04-18T03:18:26.032Z,10.01
2018-04-18T03:19:26.578Z,10.04
2018-04-18T03:20:27.119Z,10.02
2018-04-18T03:21:27.660Z,10.05
2018-04-18T03:22:28.211Z,9.99
2018-04-18T03:23:28.748Z,9.96
2018-04-18T03:24:29.289Z,9.99
2018-04-18T03:25:29.829Z,9.98
2018-04-18T03:26:30.385Z,9.96
2018-04-18T03:27:30.919Z,9.91
2018-04-18T03:28:31.463Z,9.87
2018-04-18T03:29:32.012Z,9.87
2018-04-18T03:30:32.553Z,9.84
2018-04-18T03:31:33.094Z,9.80
2018-04-18T03:32:33.643Z,9.77
2018-04-18T03:33:34.184Z,9.94
2018-04-18T03:34:34.739Z,9.88
2018-04-18T03:35:35.280Z,9.81
2018-04-18T03:36:35.825Z,9.88
2018-04-18T03:37:36.366Z,9.91
2018-04-18T03:38:36.909Z,9.81
2018-04-18T03:39:37.449Z,9.86
2018-04-18T03:40:37.999Z,9.86
2018-04-18T03:41:38.540Z,9.86
2018-04-18T03:42:39.083Z,9.94
2018-04-18T03:43:39.629Z,9.94
2018-04-18T03:44:40.174Z,9.79
2018-04-18T03:45:40.731Z,9.77
2018-04-18T03:46:41.276Z,9.80
2018-04-18T03:47:41.814Z,9.80
2018-04-18T03:48:42.357Z,9.77
2018-04-18T03:49:42.900Z,9.69
2018-04-18T03:50:43.447Z,9.71
2018-04-18T03:51:43.995Z,9.63
2018-04-18T03:52:44.533Z,9.76
2018-04-18T03:53:45.079Z,9.63
2018-04-18T03:54:45.624Z,9.62
2018-04-18T03:55:46.170Z,9.59
2018-04-18T03:56:46.714Z,9.53
2018-04-18T03:57:47.258Z,9.47
2018-04-18T03:58:47.802Z,9.51
2018-04-18T03:59:48.350Z,9.56
2018-04-18T04:00:48.896Z,9.43
2018-04-18T04:01:49.445Z,9.43
2018-04-18T04:02:50.012Z,9.43
2018-04-18T04:03:50.546Z,9.45
2018-04-18T04:04:51.093Z,9.35
2018-04-18T04:05:51.637Z,9.43
2018-04-18T04:06:52.180Z,9.35
2018-04-18T04:07:52.720Z,9.43
2018-04-18T04:08:53.262Z,9.36
2018-04-18T04:09:53.810Z,9.36
2018-04-18T04:10:54.358Z,9.28
2018-04-18T04:11:54.904Z,9.29
2018-04-18T04:12:55.445Z,9.25
2018-04-18T04:13:55.994Z,9.23
2018-04-18T04:14:56.544Z,9.26
2018-04-18T04:15:57.084Z,9.26
2018-04-18T04:16:57.630Z,9.23
2018-04-18T04:17:58.188Z,9.28
2018-04-18T04:18:58.732Z,9.22
2018-04-18T04:19:59.279Z,9.22
2018-04-18T04:20:59.830Z,9.25
2018-04-18T04:22:00.375Z,9.22
2018-04-18T04:23:00.945Z,9.10
2018-04-18T04:24:01.485Z,9.11
2018-04-18T04:25:02.039Z,9.06
2018-04-18T04:26:02.611Z,9.17
2018-04-18T04:27:03.168Z,9.17
2018-04-18T04:28:03.719Z,9.20
2018-04-18T04:29:04.265Z,9.15
2018-04-18T04:30:04.816Z,9.20
2018-04-18T04:31:05.369Z,9.26
2018-04-18T04:32:05.932Z,9.22
2018-04-18T04:33:06.494Z,9.22
2018-04-18T04:34:07.048Z,9.25
2018-04-18T04:35:07.600Z,9.28
2018-04-18T04:36:08.157Z,9.36
2018-04-18T04:37:08.723Z,9.30
2018-04-18T04:38:09.261Z,9.30
2018-04-18T04:39:09.806Z,9.35
2018-04-18T04:40:10.349Z,9.43
2018-04-18T04:41:10.894Z,9.44
2018-04-18T04:42:11.446Z,9.35
2018-04-18T04:43:12.008Z,9.47
2018-04-18T04:44:12.552Z,9.32
2018-04-18T04:45:13.101Z,9.38
2018-04-18T04:46:13.655Z,9.38
2018-04-18T04:47:14.201Z,9.47
2018-04-18T04:48:14.747Z,9.56
2018-04-18T04:49:15.319Z,9.51
2018-04-18T04:50:15.873Z,9.54
2018-04-18T04:51:16.421Z,9.51
2018-04-18T04:52:16.970Z,9.48
2018-04-18T04:53:17.515Z,9.51
2018-04-18T04:54:18.062Z,9.51
2018-04-18T04:55:18.613Z,9.69
2018-04-18T04:56:19.164Z,9.65
2018-04-18T04:57:19.716Z,9.58
2018-04-18T04:58:20.272Z,9.58
2018-04-18T04:59:20.815Z,9.59
2018-04-18T05:00:21.365Z,9.44
2018-04-18T05:01:21.918Z,9.59
2018-04-18T05:02:22.468Z,9.58
2018-04-18T05:03:23.168Z,9.56
2018-04-18T05:04:23.723Z,9.63
2018-04-18T05:05:24.277Z,9.66
2018-04-18T05:06:24.819Z,9.74
2018-04-18T05:07:25.365Z,9.79
2018-04-18T05:08:25.915Z,9.81
2018-04-18T05:09:26.466Z,9.88
2018-04-18T05:10:27.017Z,9.94
2018-04-18T05:11:27.561Z,10.01
2018-04-18T05:12:28.112Z,10.04
2018-04-18T05:13:28.663Z,10.09
2018-04-18T05:14:29.217Z,10.22
2018-04-18T05:15:29.770Z,10.22
2018-04-18T05:16:30.322Z,10.39
2018-04-18T05:17:30.873Z,10.49
2018-04-18T05:18:31.425Z,10.74
2018-04-18T05:19:31.976Z,11.00
2018-04-18T05:20:32.533Z,11.19
2018-04-18T05:21:33.085Z,11.40
2018-04-18T05:22:33.642Z,11.51
2018-04-18T05:23:34.195Z,11.69
2018-04-18T05:24:34.756Z,11.65
2018-04-18T05:25:35.301Z,11.63
2018-04-18T05:26:35.852Z,11.73
2018-04-18T05:27:36.404Z,11.93
2018-04-18T05:28:36.959Z,12.16
2018-04-18T05:29:37.502Z,12.34
2018-04-18T05:30:38.056Z,12.79
2018-04-18T05:31:38.615Z,13.16
2018-04-18T05:32:39.167Z,13.72
2018-04-18T05:33:39.729Z,14.08
2018-04-18T05:34:40.284Z,14.10
2018-04-18T05:35:40.850Z,14.00
2018-04-18T05:36:41.403Z,14.21
2018-04-18T05:37:41.961Z,14.33
2018-04-18T05:38:42.520Z,14.66
2018-04-18T05:39:43.128Z,14.69
2018-04-18T05:40:43.690Z,14.52
2018-04-18T05:41:44.249Z,14.12
2018-04-18T05:42:44.798Z,14.18
2018-04-18T05:43:45.357Z,14.30
2018-04-18T05:44:45.906Z,14.77
2018-04-18T05:45:46.460Z,15.11
2018-04-18T05:46:47.014Z,15.14
2018-04-18T05:47:47.575Z,15.49
2018-04-18T05:48:48.136Z,15.73
2018-04-18T05:49:48.692Z,15.97
2018-04-18T05:50:49.265Z,16.38
2018-04-18T05:51:49.808Z,16.66
2018-04-18T05:52:50.371Z,16.97
2018-04-18T05:53:50.931Z,17.08
2018-04-18T05:54:51.524Z,17.34
2018-04-18T05:55:52.046Z,17.52
2018-04-18T05:56:52.610Z,17.70
2018-04-18T05:57:53.177Z,17.92
2018-04-18T05:58:53.738Z,18.22
2018-04-18T05:59:54.299Z,18.30
2018-04-18T06:00:54.857Z,18.51
2018-04-18T06:01:55.421Z,18.66
2018-04-18T06:02:55.984Z,18.75
2018-04-18T06:03:56.549Z,18.53
2018-04-18T06:04:57.110Z,18.34
2018-04-18T06:05:57.676Z,18.55
2018-04-18T06:06:58.239Z,18.69
2018-04-18T06:07:58.805Z,19.12
2018-04-18T06:08:59.373Z,19.37
2018-04-18T06:09:59.932Z,19.66
2018-04-18T06:11:00.497Z,19.69
2018-04-18T06:12:01.063Z,19.80
2018-04-18T06:13:01.631Z,19.94
2018-04-18T06:14:02.190Z,19.96
2018-04-18T06:15:02.752Z,19.58
2018-04-18T06:16:03.312Z,19.37
2018-04-18T06:17:03.881Z,19.37
2018-04-18T06:18:04.440Z,19.74
2018-04-18T06:19:05.010Z,19.73
2018-04-18T06:20:05.575Z,20.03
2018-04-18T06:21:06.139Z,20.31
2018-04-18T06:22:06.703Z,20.29
2018-04-18T06:23:07.272Z,20.43
2018-04-18T06:24:07.841Z,20.26
2018-04-18T06:25:08.409Z,20.36
2018-04-18T06:26:08.979Z,20.36
2018-04-18T06:27:09.539Z,20.31
2018-04-18T06:28:10.110Z,20.39
2018-04-18T06:29:10.679Z,20.66
2018-04-18T06:30:11.248Z,20.96
2018-04-18T06:31:11.813Z,21.14
2018-04-18T06:32:12.377Z,20.95
2018-04-18T06:33:12.946Z,20.92
2018-04-18T06:34:13.515Z,21.09
2018-04-18T06:35:14.081Z,21.21
2018-04-18T06:36:14.649Z,21.40
2018-04-18T06:37:15.221Z,21.70
2018-04-18T06:38:15.784Z,21.79
2018-04-18T06:39:16.357Z,22.14
2018-04-18T06:40:16.923Z,22.53
2018-04-18T06:41:17.493Z,22.48
2018-04-18T06:42:18.060Z,22.69
2018-04-18T06:43:18.632Z,23.16
2018-04-18T06:44:19.203Z,23.43
2018-04-18T06:45:19.768Z,23.56
2018-04-18T06:46:20.338Z,23.91
2018-04-18T06:47:20.914Z,24.18
2018-04-18T06:48:21.477Z,24.38
2018-04-18T06:49:22.042Z,24.46
2018-04-18T06:50:22.612Z,24.63
2018-04-18T06:51:23.189Z,24.81
2018-04-18T06:52:23.748Z,25.01
2018-04-18T06:53:24.320Z,25.25
2018-04-18T06:54:24.896Z,25.25
2018-04-18T06:55:25.467Z,25.24
2018-04-18T06:56:26.036Z,25.14
2018-04-18T06:57:26.604Z,24.96
2018-04-18T06:58:27.179Z,24.95
2018-04-18T06:59:27.749Z,24.91
2018-04-18T07:00:28.316Z,25.06
2018-04-18T07:01:28.881Z,24.86
2018-04-18T07:02:29.462Z,24.68
2018-04-18T07:03:30.020Z,24.92
2018-04-18T07:04:30.591Z,24.79
2018-04-18T07:05:31.164Z,24.80
2018-04-18T07:06:31.737Z,25.02
2018-04-18T07:07:32.311Z,25.25
2018-04-18T07:08:32.879Z,25.33
2018-04-18T07:09:33.452Z,25.44
2018-04-18T07:10:34.033Z,25.16
2018-04-18T07:11:34.597Z,25.18
2018-04-18T07:12:35.160Z,25.32
2018-04-18T07:13:35.735Z,25.71
2018-04-18T07:14:36.312Z,25.93
2018-04-18T07:15:36.876Z,26.02
2018-04-18T07:16:37.492Z,26.06
2018-04-18T07:17:38.063Z,26.16
2018-04-18T07:18:38.641Z,26.34
2018-04-18T07:19:39.233Z,26.41
2018-04-18T07:20:39.818Z,26.40
2018-04-18T07:21:40.392Z,26.37
2018-04-18T07:22:40.959Z,26.50
2018-04-18T07:23:41.527Z,26.61
2018-04-18T07:24:42.092Z,26.73
2018-04-18T07:25:42.664Z,26.74
2018-04-18T07:26:43.240Z,26.98
2018-04-18T07:27:43.821Z,26.99
2018-04-18T07:28:44.387Z,26.99
2018-04-18T07:29:44.972Z,27.05
2018-04-18T07:30:45.539Z,27.10
2018-04-18T07:31:46.111Z,27.02
2018-04-18T07:32:46.687Z,27.03
2018-04-18T07:33:47.265Z,26.96
2018-04-18T07:34:47.843Z,27.02
2018-04-18T07:35:48.415Z,27.05
2018-04-18T07:36:48.994Z,27.10
2018-04-18T07:37:49.563Z,27.18
2018-04-18T07:38:50.135Z,27.50
2018-04-18T07:39:50.707Z,27.67
2018-04-18T07:40:51.283Z,27.71
2018-04-18T07:41:51.850Z,27.74
2018-04-18T07:42:52.433Z,27.78
2018-04-18T07:43:53.012Z,27.77
2018-04-18T07:44:53.596Z,27.74
2018-04-18T07:45:54.161Z,27.89
2018-04-18T07:46:54.736Z,27.89
2018-04-18T07:47:55.315Z,28.08
2018-04-18T07:48:55.885Z,28.07
2018-04-18T07:49:56.463Z,28.25
2018-04-18T07:50:57.035Z,28.42
2018-04-18T07:51:57.612Z,28.70
2018-04-18T07:52:58.194Z,28.89
2018-04-18T07:53:58.762Z,29.01
2018-04-18T07:54:59.368Z,28.94
2018-04-18T07:55:59.918Z,29.05
2018-04-18T07:57:00.491Z,29.08
2018-04-18T07:58:01.052Z,28.73
2018-04-18T07:59:01.632Z,28.57
2018-04-18T08:00:02.198Z,28.79
2018-04-18T08:01:02.767Z,28.92
2018-04-18T08:02:03.344Z,28.81
2018-04-18T08:03:03.924Z,28.78
2018-04-18T08:04:04.492Z,28.89
2018-04-18T08:05:05.063Z,28.77
2018-04-18T08:06:05.635Z,28.82
2018-04-18T08:07:06.208Z,28.77
2018-04-18T08:08:06.781Z,28.65
2018-04-18T08:09:07.355Z,28.07
2018-04-18T08:10:07.924Z,28.17
2018-04-18T08:11:08.501Z,28.35
2018-04-18T08:12:09.087Z,28.63
2018-04-18T08:13:09.656Z,28.66
2018-04-18T08:14:10.231Z,28.91
2018-04-18T08:15:10.808Z,29.05
2018-04-18T08:16:11.383Z,29.03
2018-04-18T08:17:11.957Z,28.91
2018-04-18T08:18:12.532Z,28.87
2018-04-18T08:19:13.302Z,28.85
2018-04-18T08:20:13.870Z,28.00
2018-04-18T08:21:14.449Z,27.70
2018-04-18T08:22:15.030Z,27.99
2018-04-18T08:23:15.611Z,28.07
2018-04-18T08:24:16.187Z,27.85
2018-04-18T08:25:16.760Z,27.80
2018-04-18T08:26:17.340Z,27.81
2018-04-18T08:27:17.899Z,27.73
2018-04-18T08:28:18.476Z,27.98
2018-04-18T08:29:19.046Z,28.05
2018-04-18T08:30:19.621Z,28.25
2018-04-18T08:31:20.195Z,28.45
2018-04-18T08:32:20.773Z,28.40
2018-04-18T08:33:21.340Z,28.40
2018-04-18T08:34:21.910Z,28.26
2018-04-18T08:35:22.481Z,28.33
2018-04-18T08:36:23.065Z,28.25
2018-04-18T08:37:23.640Z,27.77
2018-04-18T08:38:24.214Z,27.90
2018-04-18T08:39:24.799Z,27.70
2018-04-18T08:40:25.369Z,27.54
2018-04-18T08:41:25.949Z,27.51
2018-04-18T08:42:26.527Z,27.62
2018-04-18T08:43:27.098Z,27.81
2018-04-18T08:44:27.670Z,28.08
2018-04-18T08:45:28.246Z,28.50
2018-04-18T08:46:28.824Z,28.63
2018-04-18T08:47:29.393Z,28.60
2018-04-18T08:48:29.965Z,28.42
2018-04-18T08:49:30.537Z,28.18
2018-04-18T08:50:31.115Z,28.42
2018-04-18T08:51:31.692Z,28.88
2018-04-18T08:52:32.268Z,29.26
2018-04-18T08:53:32.840Z,29.11
2018-04-18T08:54:33.417Z,29.22
2018-04-18T08:55:33.988Z,29.48
2018-04-18T08:56:34.557Z,29.41
2018-04-18T08:57:35.130Z,29.72
2018-04-18T08:58:35.710Z,29.56
2018-04-18T08:59:36.285Z,29.67
2018-04-18T09:00:36.850Z,29.60
2018-04-18T09:01:37.426Z,29.76
2018-04-18T09:02:38.021Z,29.87
2018-04-18T09:03:38.594Z,30.11
2018-04-18T09:04:39.176Z,30.30
2018-04-18T09:05:39.806Z,30.37
2018-04-18T09:06:40.357Z,30.30
2018-04-18T09:07:40.930Z,30.35
2018-04-18T09:08:41.507Z,30.27
2018-04-18T09:09:42.089Z,30.50
2018-04-18T09:10:42.675Z,30.38
2018-04-18T09:11:43.265Z,30.03
2018-04-18T09:12:43.842Z,29.72
2018-04-18T09:13:44.428Z,29.37
2018-04-18T09:14:44.997Z,29.37
2018-04-18T09:15:45.627Z,29.17
2018-04-18T09:16:46.154Z,29.37
2018-04-18T09:17:46.735Z,29.62
2018-04-18T09:18:47.356Z,29.79
2018-04-18T09:19:47.943Z,30.05
2018-04-18T09:20:48.522Z,30.01
2018-04-18T09:21:49.092Z,30.11
2018-04-18T09:22:49.667Z,29.85
2018-04-18T09:23:50.236Z,29.89
2018-04-18T09:24:50.810Z,29.52
2018-04-18T09:25:51.387Z,29.29
2018-04-18T09:26:51.968Z,28.91
2018-04-18T09:27:52.538Z,28.70
2018-04-18T09:28:53.111Z,28.55
2018-04-18T09:29:53.681Z,28.82
2018-04-18T09:30:54.259Z,28.72
2018-04-18T09:31:54.832Z,28.72
2018-04-18T09:32:55.409Z,29.07
2018-04-18T09:33:55.995Z,29.38
2018-04-18T09:34:56.567Z,29.56
2018-04-18T09:35:57.148Z,29.52
2018-04-18T09:36:57.720Z,29.38
2018-04-18T09:37:58.293Z,29.15
2018-04-18T09:38:58.870Z,29.10
2018-04-18T09:39:59.440Z,29.07
2018-04-18T09:41:00.015Z,29.10
2018-04-18T09:42:00.586Z,28.79
2018-04-18T09:43:01.149Z,28.77
2018-04-18T09:44:01.733Z,28.52
2018-04-18T09:45:02.299Z,28.78
2018-04-18T09:46:02.869Z,28.81
2018-04-18T09:47:03.438Z,28.66
2018-04-18T09:48:04.014Z,28.82
2018-04-18T09:49:04.589Z,28.66
2018-04-18T09:50:05.166Z,28.70
2018-04-18T09:51:05.734Z,28.45
2018-04-18T09:52:06.306Z,28.17
2018-04-18T09:53:06.881Z,28.15
2018-04-18T09:54:07.445Z,28.20
2018-04-18T09:55:08.021Z,28.26
2018-04-18T09:56:08.594Z,28.27
2018-04-18T09:57:09.165Z,27.93
2018-04-18T09:58:09.743Z,28.10
2018-04-18T09:59:10.314Z,28.20
2018-04-18T10:00:10.894Z,28.23
2018-04-18T10:01:11.525Z,28.00
2018-04-18T10:02:12.102Z,27.89
2018-04-18T10:03:12.680Z,27.62
2018-04-18T10:04:13.255Z,27.43
2018-04-18T10:05:13.828Z,27.73
2018-04-18T10:06:14.401Z,27.99
2018-04-18T10:07:14.977Z,27.61
2018-04-18T10:08:15.553Z,27.32
2018-04-18T10:09:16.133Z,27.25
2018-04-18T10:10:16.714Z,27.30
2018-04-18T10:11:17.280Z,27.10
2018-04-18T10:12:18.076Z,27.20
2018-04-18T10:13:18.652Z,27.23
2018-04-18T10:14:19.236Z,27.10
2018-04-18T10:30:25.303Z,27.06
2018-04-18T10:31:25.878Z,27.08
2018-04-18T10:32:26.447Z,27.24
2018-04-18T10:33:27.034Z,27.17
2018-04-18T10:34:27.608Z,27.25
2018-04-18T10:35:28.184Z,27.30
2018-04-18T10:36:28.760Z,27.17
2018-04-18T10:37:29.330Z,27.47
2018-04-18T10:38:29.895Z,27.67
2018-04-18T10:39:30.469Z,27.63
2018-04-18T10:40:31.049Z,27.83
2018-04-18T10:41:31.620Z,27.98
2018-04-18T10:42:32.190Z,28.18
2018-04-18T10:43:32.760Z,28.27
2018-04-18T10:44:33.332Z,28.25
2018-04-18T10:45:33.919Z,28.32
2018-04-18T10:46:34.494Z,28.57
2018-04-18T10:47:35.072Z,28.51
2018-04-18T10:48:35.671Z,28.72
2018-04-18T10:49:36.231Z,28.69
2018-04-18T10:50:36.807Z,28.13
2018-04-18T10:51:37.385Z,27.74
2018-04-18T10:52:37.951Z,27.70
2018-04-18T10:53:38.525Z,27.71
2018-04-18T10:54:39.100Z,27.74
2018-04-18T10:55:39.675Z,27.96
2018-04-18T10:56:40.260Z,27.96
2018-04-18T10:57:40.978Z,27.92
2018-04-18T10:58:41.561Z,28.00
2018-04-18T10:59:42.134Z,28.33
2018-04-18T11:00:42.723Z,28.38
2018-04-18T11:01:43.296Z,28.36
2018-04-18T11:02:43.878Z,28.38
2018-04-18T11:03:44.460Z,28.65
2018-04-18T11:04:45.047Z,28.96
2018-04-18T11:05:45.618Z,29.10
2018-04-18T11:06:46.206Z,29.00
2018-04-18T11:07:46.771Z,29.00
2018-04-18T11:08:47.363Z,29.17
2018-04-18T11:09:47.940Z,29.60
2018-04-18T11:10:48.533Z,29.37
2018-04-18T11:11:49.116Z,29.15
2018-04-18T11:12:49.712Z,29.01
2018-04-18T11:13:50.271Z,29.07
2018-04-18T11:14:51.075Z,29.08
2018-04-18T11:15:51.653Z,29.23
2018-04-18T11:16:52.234Z,29.42
2018-04-18T11:31:42.861Z,30.26
2018-04-18T11:32:43.435Z,30.18
2018-04-18T11:33:44.020Z,30.06
2018-04-18T11:34:44.605Z,30.19
2018-04-18T11:35:45.189Z,30.13
2018-04-18T11:36:45.771Z,30.33
2018-04-18T11:37:46.348Z,30.38
2018-04-18T11:38:46.921Z,30.16
2018-04-18T11:39:47.524Z,29.99
2018-04-18T11:40:48.074Z,30.09
2018-04-18T11:41:48.653Z,30.16
2018-04-18T11:42:49.223Z,30.40
2018-04-18T11:43:49.812Z,30.69
2018-04-18T11:44:50.398Z,30.97
2018-04-18T11:45:51.033Z,31.37
2018-04-18T11:46:51.547Z,31.61
2018-04-18T11:47:52.114Z,31.47
2018-04-18T11:48:52.692Z,31.46
2018-04-18T11:49:53.264Z,31.15
2018-04-18T11:50:53.849Z,31.32
2018-04-18T11:51:54.459Z,31.34
2018-04-18T11:52:54.992Z,31.31
2018-04-18T11:53:55.562Z,31.34
2018-04-18T11:54:56.165Z,31.61
2018-04-18T11:55:56.747Z,31.82
2018-04-18T11:56:57.279Z,32.15
2018-04-18T11:57:57.857Z,32.27
2018-04-18T11:58:58.423Z,32.06
2018-04-18T11:59:58.987Z,32.10
2018-04-18T12:00:59.565Z,32.14
2018-04-18T12:02:00.151Z,32.06
2018-04-18T12:03:00.729Z,32.05
2018-04-18T12:04:01.303Z,32.06
2018-04-18T12:05:01.879Z,32.00
2018-04-18T12:06:02.466Z,32.00
2018-04-18T12:07:03.053Z,31.96
2018-04-18T12:23:09.122Z,31.64
2018-04-18T12:24:09.711Z,31.43
2018-04-18T12:25:10.292Z,31.25
2018-04-18T12:26:10.868Z,31.17
2018-04-18T12:27:11.433Z,30.88
2018-04-18T12:28:12.052Z,31.10
2018-04-18T12:29:13.204Z,31.37
2018-04-18T12:30:13.777Z,31.58
2018-04-18T12:31:14.351Z,32.05
2018-04-18T12:32:14.926Z,31.93
2018-04-18T12:33:15.504Z,31.79
2018-04-18T12:34:16.080Z,31.82
2018-04-18T12:35:16.662Z,31.87
2018-04-18T12:36:17.243Z,31.85
2018-04-18T12:37:17.827Z,31.55
2018-04-18T12:38:18.408Z,31.82
2018-04-18T12:39:18.988Z,31.55
2018-04-18T12:40:19.575Z,31.79
2018-04-18T12:41:20.160Z,32.05
2018-04-18T12:42:20.745Z,31.80
2018-04-18T12:43:21.324Z,31.74
2018-04-18T12:44:21.902Z,31.55
2018-04-18T12:45:22.476Z,31.54
2018-04-18T12:46:23.062Z,31.74
2018-04-18T12:47:23.645Z,31.46
2018-04-18T12:48:24.216Z,31.88
2018-04-18T12:49:24.788Z,32.06
2018-04-18T12:50:25.367Z,32.34
2018-04-18T12:51:25.942Z,32.02
2018-04-18T12:52:26.514Z,31.88
2018-04-18T12:53:27.085Z,31.65
2018-04-18T13:09:33.158Z,32.18
2018-04-18T13:10:33.725Z,32.10
2018-04-18T13:11:34.300Z,32.30
2018-04-18T13:12:34.867Z,32.34
2018-04-18T13:13:35.444Z,32.49
2018-04-18T13:14:36.013Z,32.66
2018-04-18T13:15:36.581Z,32.81
2018-04-18T13:16:37.152Z,32.48
2018-04-18T13:17:37.722Z,32.51
2018-04-18T13:18:38.287Z,32.62
2018-04-18T13:19:38.855Z,32.58
2018-04-18T13:20:39.426Z,32.48
2018-04-18T13:21:39.996Z,32.40
2018-04-18T13:22:40.572Z,31.96
2018-04-18T13:23:41.156Z,32.17
2018-04-18T13:24:41.735Z,32.41
2018-04-18T13:25:42.304Z,32.67
2018-04-18T13:26:42.871Z,32.74
2018-04-18T13:27:43.442Z,33.05
2018-04-18T13:28:44.009Z,33.20
2018-04-18T13:29:44.583Z,33.60
2018-04-18T13:30:45.168Z,33.99
2018-04-18T13:31:45.739Z,34.51
2018-04-18T13:32:46.307Z,34.48
2018-04-18T13:33:46.887Z,34.34
2018-04-18T13:34:47.463Z,33.74
2018-04-18T13:35:48.049Z,33.71
2018-04-18T13:36:48.617Z,33.37
2018-04-18T13:37:49.247Z,33.22
2018-04-18T13:38:49.769Z,33.20
2018-04-18T13:56:11.306Z,34.42
2018-04-18T13:57:11.877Z,34.04
2018-04-18T13:58:12.452Z,33.85
2018-04-18T13:59:13.021Z,33.86
2018-04-18T14:00:13.595Z,33.99
2018-04-18T14:01:14.170Z,34.39
2018-04-18T14:02:14.785Z,34.81
2018-04-18T14:03:15.312Z,34.65
2018-04-18T14:04:15.883Z,34.35
2018-04-18T14:05:16.456Z,34.11
2018-04-18T14:06:17.025Z,33.65
2018-04-18T14:07:17.608Z,33.87
2018-04-18T14:08:18.179Z,33.98
2018-04-18T14:09:18.745Z,34.19
2018-04-18T14:10:19.321Z,34.24
2018-04-18T14:11:19.891Z,34.09
2018-04-18T14:12:20.456Z,33.64
2018-04-18T14:13:21.023Z,33.61
2018-04-18T14:14:21.601Z,33.27
2018-04-18T14:15:22.172Z,33.11
2018-04-18T14:16:22.748Z,33.36
2018-04-18T14:17:23.317Z,33.76
2018-04-18T14:18:23.885Z,33.50
2018-04-18T14:19:24.462Z,33.53